Time;durP1;ratioP1;P1;durP2;ratioP2;P2;SDS_P1;SDS_P2;PMS_P1;PMS_P2;Temp;Humidity;BMP_temperature;BMP_pressure;BME280_temperature;BME280_humidity;BME280_pressure;Samples;Min_cycle;Max_cycle;Signal;HPM_P1;HPM_P2
2023/05/15 00:00:19;;;;;;;7.38;5.35;;;;;;;;;;5070064;28;20052;-77
2023/05/15 00:02:45;;;;;;;9.45;6.00;;;;;;;;;;5070255;28;20487;-77
2023/05/15 00:05:12;;;;;;;8.85;6.10;;;;;;;;;;5069934;28;20029;-76
2023/05/15 00:07:40;;;;;;;11.50;6.60;;;;;;;;;;5070090;28;20033;-76
2023/05/15 00:10:06;;;;;;;7.80;5.20;;;;;;;;;;5069860;28;20376;-76
2023/05/15 00:12:31;;;;;;;8.18;5.90;;;;;;;;;;5069942;28;20039;-76
2023/05/15 00:14:57;;;;;;;9.57;6.50;;;;;;;;;;5069876;28;20021;-75
2023/05/15 00:17:22;;;;;;;9.43;6.97;;;;;;;;;;5051980;28;20028;-77
2023/05/15 00:19:48;;;;;;;10.77;6.88;;;;;;;;;;5069787;28;20124;-76
2023/05/15 00:22:14;;;;;;;9.05;5.95;;;;;;;;;;5069694;28;20361;-76
2023/05/15 00:24:39;;;;;;;15.13;7.00;;;;;;;;;;5069931;28;20024;-76
2023/05/15 00:27:05;;;;;;;9.45;6.30;;;;;;;;;;5069824;28;20037;-75
2023/05/15 00:29:30;;;;;;;8.15;6.03;;;;;;;;;;5052008;28;20036;-77
2023/05/15 00:31:56;;;;;;;8.40;6.05;;;;;;;;;;5069781;28;20444;-76
2023/05/15 00:34:21;;;;;;;11.43;7.07;;;;;;;;;;5085137;28;20203;-75
2023/05/15 00:36:47;;;;;;;11.52;7.03;;;;;;;;;;5085677;28;20036;-75
2023/05/15 00:39:13;;;;;;;9.45;7.10;;;;;;;;;;5069599;28;20032;-76
2023/05/15 00:41:40;;;;;;;12.52;7.18;;;;;;;;;;5070164;28;20025;-75
2023/05/15 00:44:06;;;;;;;11.38;8.57;;;;;;;;;;5051312;28;20032;-75
2023/05/15 00:46:34;;;;;;;10.07;7.07;;;;;;;;;;5069830;28;20471;-76
2023/05/15 00:48:59;;;;;;;11.60;7.80;;;;;;;;;;5051312;28;20082;-75
2023/05/15 00:51:25;;;;;;;12.32;8.00;;;;;;;;;;5085096;28;20032;-75
2023/05/15 00:53:51;;;;;;;12.40;8.13;;;;;;;;;;5069624;28;20064;-76
2023/05/15 00:56:17;;;;;;;10.73;7.63;;;;;;;;;;5069308;28;20091;-76
2023/05/15 00:58:46;;;;;;;9.80;7.13;;;;;;;;;;5069576;28;20101;-75
2023/05/15 01:01:15;;;;;;;9.77;6.93;;;;;;;;;;5070408;28;20025;-75
2023/05/15 01:03:42;;;;;;;11.85;8.10;;;;;;;;;;5055665;28;20471;-76
2023/05/15 01:06:07;;;;;;;14.43;8.43;;;;;;;;;;5088746;28;20518;-75
2023/05/15 01:08:41;;;;;;;10.75;7.93;;;;;;;;;;5073548;28;20025;-76
2023/05/15 01:11:07;;;;;;;12.95;9.15;;;;;;;;;;5072883;28;20060;-75
2023/05/15 01:13:33;;;;;;;13.00;8.85;;;;;;;;;;5072925;28;20036;-77
2023/05/15 01:15:58;;;;;;;15.20;8.45;;;;;;;;;;5072757;28;20036;-75
2023/05/15 01:18:30;;;;;;;12.10;9.73;;;;;;;;;;5054926;28;20047;-76
2023/05/15 01:21:06;;;;;;;12.32;8.65;;;;;;;;;;5054829;28;20032;-76
2023/05/15 01:23:53;;;;;;;12.75;8.95;;;;;;;;;;5088698;28;20115;-77
2023/05/15 01:27:00;;;;;;;13.02;8.23;;;;;;;;;;5088290;28;20032;-76
2023/05/15 01:29:40;;;;;;;12.30;8.52;;;;;;;;;;5072719;28;20029;-76
2023/05/15 01:32:10;;;;;;;13.02;8.70;;;;;;;;;;5054893;28;20082;-74
2023/05/15 01:35:21;;;;;;;13.02;8.30;;;;;;;;;;5055323;28;20036;-76
2023/05/15 01:37:54;;;;;;;10.70;7.30;;;;;;;;;;4994019;28;20026;-77
2023/05/15 01:40:21;;;;;;;10.80;7.13;;;;;;;;;;5062422;28;20120;-75
2023/05/15 01:42:58;;;;;;;12.52;8.35;;;;;;;;;;5072813;28;20024;-76
2023/05/15 01:45:24;;;;;;;11.02;7.65;;;;;;;;;;5072690;28;20024;-77
2023/05/15 01:47:53;;;;;;;13.25;8.13;;;;;;;;;;5072511;28;20039;-77
2023/05/15 01:50:19;;;;;;;12.77;7.32;;;;;;;;;;5072034;28;20032;-77
2023/05/15 01:52:55;;;;;;;12.00;7.50;;;;;;;;;;5054737;28;20024;-76
2023/05/15 01:55:24;;;;;;;15.02;8.75;;;;;;;;;;5054053;28;20055;-77
2023/05/15 01:57:51;;;;;;;12.23;8.07;;;;;;;;;;5054358;28;20060;-77
2023/05/15 02:00:19;;;;;;;11.98;7.95;;;;;;;;;;5054183;28;20543;-76
2023/05/15 02:02:45;;;;;;;11.18;7.93;;;;;;;;;;5053256;28;20380;-76
2023/05/15 02:05:12;;;;;;;12.57;7.20;;;;;;;;;;5072189;28;20029;-77
2023/05/15 02:07:41;;;;;;;14.80;8.52;;;;;;;;;;5053805;28;20522;-75
2023/05/15 02:10:08;;;;;;;13.30;7.85;;;;;;;;;;5053495;28;20468;-77
2023/05/15 02:12:34;;;;;;;10.95;7.93;;;;;;;;;;5071163;28;20407;-76
2023/05/15 02:15:01;;;;;;;9.80;6.53;;;;;;;;;;5053217;28;20056;-75
2023/05/15 02:17:28;;;;;;;8.50;6.53;;;;;;;;;;5053739;28;20037;-77
2023/05/15 02:19:54;;;;;;;9.05;6.80;;;;;;;;;;5072069;28;20027;-76
2023/05/15 02:22:19;;;;;;;11.23;7.38;;;;;;;;;;5071422;28;20483;-77
2023/05/15 02:24:45;;;;;;;11.20;6.90;;;;;;;;;;5071937;28;20032;-77
2023/05/15 02:27:46;;;;;;;12.18;7.57;;;;;;;;;;5071731;28;20054;-76
2023/05/15 02:30:21;;;;;;;10.43;7.40;;;;;;;;;;5033283;28;20040;-76
2023/05/15 02:33:05;;;;;;;11.40;7.28;;;;;;;;;;5070420;28;20036;-78
2023/05/15 02:36:06;;;;;;;10.27;6.90;;;;;;;;;;5070194;28;20476;-77
2023/05/15 02:38:49;;;;;;;10.73;6.97;;;;;;;;;;5052563;28;20040;-76
2023/05/15 02:41:16;;;;;;;14.98;7.90;;;;;;;;;;5071511;28;20022;-77
2023/05/15 02:43:42;;;;;;;12.73;7.60;;;;;;;;;;5071483;28;20480;-76
2023/05/15 02:46:09;;;;;;;11.20;6.80;;;;;;;;;;5071520;28;20078;-75
2023/05/15 02:48:38;;;;;;;10.93;7.47;;;;;;;;;;5053886;28;20038;-75
2023/05/15 02:51:05;;;;;;;11.60;6.82;;;;;;;;;;5070983;28;20028;-76
2023/05/15 02:53:32;;;;;;;12.88;7.47;;;;;;;;;;5071191;28;20570;-76
2023/05/15 02:55:57;;;;;;;10.30;6.75;;;;;;;;;;5071227;28;20028;-77
2023/05/15 02:58:23;;;;;;;15.35;7.47;;;;;;;;;;5070831;28;20491;-76
2023/05/15 03:00:48;;;;;;;11.25;6.88;;;;;;;;;;5070741;28;20476;-76
2023/05/15 03:03:14;;;;;;;11.93;7.07;;;;;;;;;;5070817;28;20036;-76
2023/05/15 03:05:39;;;;;;;10.63;6.70;;;;;;;;;;5069320;28;20035;-76
2023/05/15 03:08:05;;;;;;;11.57;7.60;;;;;;;;;;5069418;28;20120;-77
2023/05/15 03:10:30;;;;;;;13.43;7.40;;;;;;;;;;5052537;28;20442;-76
2023/05/15 03:12:58;;;;;;;12.00;7.00;;;;;;;;;;5053004;28;20033;-76
2023/05/15 03:15:24;;;;;;;11.18;6.50;;;;;;;;;;5069429;28;20591;-76
2023/05/15 03:17:50;;;;;;;10.48;6.97;;;;;;;;;;5070720;28;20020;-75
2023/05/15 03:20:15;;;;;;;10.95;7.35;;;;;;;;;;5069110;28;20465;-76
2023/05/15 03:22:41;;;;;;;11.73;6.63;;;;;;;;;;5052606;28;20029;-76
2023/05/15 03:25:10;;;;;;;9.98;6.32;;;;;;;;;;5070331;28;20360;-77
2023/05/15 03:27:35;;;;;;;12.05;7.10;;;;;;;;;;5052494;28;20032;-74
2023/05/15 03:30:02;;;;;;;13.45;9.15;;;;;;;;;;5070473;28;20032;-76
2023/05/15 03:32:27;;;;;;;12.60;7.15;;;;;;;;;;5052799;28;20028;-77
2023/05/15 03:34:53;;;;;;;12.23;7.57;;;;;;;;;;5069100;28;20428;-76
2023/05/15 03:37:18;;;;;;;12.20;7.45;;;;;;;;;;5070447;28;20062;-75
2023/05/15 03:39:43;;;;;;;11.82;7.50;;;;;;;;;;5070511;28;20024;-76
2023/05/15 03:42:09;;;;;;;11.38;7.78;;;;;;;;;;5052009;28;20529;-76
2023/05/15 03:44:34;;;;;;;15.10;9.45;;;;;;;;;;5070543;28;20028;-77
2023/05/15 03:47:00;;;;;;;15.10;8.98;;;;;;;;;;5068915;28;20473;-76
2023/05/15 03:49:25;;;;;;;16.90;9.18;;;;;;;;;;5052076;28;20443;-76
2023/05/15 03:51:51;;;;;;;13.27;8.95;;;;;;;;;;5068579;28;20392;-75
2023/05/15 03:54:17;;;;;;;14.93;9.60;;;;;;;;;;5051979;28;20032;-76
2023/05/15 03:56:42;;;;;;;13.75;9.18;;;;;;;;;;5069649;28;20093;-75
2023/05/15 03:59:08;;;;;;;10.82;8.55;;;;;;;;;;5069440;28;20491;-77
2023/05/15 04:01:33;;;;;;;12.07;8.23;;;;;;;;;;5069975;28;20025;-76
2023/05/15 04:03:59;;;;;;;12.88;9.05;;;;;;;;;;5070348;28;20537;-78
2023/05/15 04:06:24;;;;;;;15.85;9.45;;;;;;;;;;5052133;28;20553;-76
2023/05/15 04:08:50;;;;;;;14.93;10.00;;;;;;;;;;5052149;28;20040;-77
2023/05/15 04:11:15;;;;;;;15.98;10.32;;;;;;;;;;5069591;28;20078;-76
2023/05/15 04:13:41;;;;;;;12.45;8.75;;;;;;;;;;5069741;28;20070;-77
2023/05/15 04:16:07;;;;;;;15.20;9.80;;;;;;;;;;5069686;28;20043;-77
2023/05/15 04:18:33;;;;;;;12.07;8.90;;;;;;;;;;5051558;28;20032;-75
2023/05/15 04:20:58;;;;;;;16.02;9.82;;;;;;;;;;5069907;28;20029;-75
2023/05/15 04:23:24;;;;;;;13.02;9.38;;;;;;;;;;5051319;28;20029;-76
2023/05/15 04:25:52;;;;;;;13.43;8.43;;;;;;;;;;5051593;28;20028;-76
2023/05/15 04:28:20;;;;;;;11.70;9.48;;;;;;;;;;5069645;28;20487;-76
2023/05/15 04:30:46;;;;;;;11.63;8.48;;;;;;;;;;5052092;28;20032;-75
2023/05/15 04:33:13;;;;;;;13.18;9.13;;;;;;;;;;5050994;28;20131;-77
2023/05/15 04:35:38;;;;;;;10.93;8.32;;;;;;;;;;5045591;28;20379;-77
2023/05/15 04:38:04;;;;;;;13.35;8.52;;;;;;;;;;5051510;28;20123;-77
2023/05/15 04:40:30;;;;;;;13.70;8.65;;;;;;;;;;5071671;28;20087;-79
2023/05/15 04:42:56;;;;;;;11.88;7.93;;;;;;;;;;5067766;28;20309;-80
2023/05/15 04:45:23;;;;;;;11.13;7.88;;;;;;;;;;5032775;28;20562;-79
2023/05/15 04:47:49;;;;;;;12.02;7.93;;;;;;;;;;5063270;28;20058;-76
2023/05/15 04:50:14;;;;;;;12.77;8.20;;;;;;;;;;5050024;28;20032;-78
2023/05/15 04:52:41;;;;;;;13.52;6.50;;;;;;;;;;5069656;28;20036;-77
2023/05/15 04:55:08;;;;;;;10.10;6.53;;;;;;;;;;5047590;28;20519;-77
2023/05/15 04:57:33;;;;;;;14.25;7.07;;;;;;;;;;5043173;28;20106;-77
2023/05/15 04:59:59;;;;;;;12.02;6.75;;;;;;;;;;5044003;28;20041;-78
2023/05/15 05:02:25;;;;;;;9.85;7.35;;;;;;;;;;5040541;28;20468;-77
2023/05/15 05:04:50;;;;;;;12.27;8.10;;;;;;;;;;5043778;28;20040;-77
2023/05/15 05:07:16;;;;;;;10.57;7.05;;;;;;;;;;5040245;28;20025;-77
2023/05/15 05:09:41;;;;;;;9.95;7.18;;;;;;;;;;5037135;28;20076;-75
2023/05/15 05:12:08;;;;;;;16.83;8.20;;;;;;;;;;5036442;28;20033;-77
2023/05/15 05:14:34;;;;;;;12.35;6.95;;;;;;;;;;5045420;28;20043;-79
2023/05/15 05:16:59;;;;;;;10.40;7.28;;;;;;;;;;5046817;28;20033;-77
2023/05/15 05:19:27;;;;;;;9.30;6.53;;;;;;;;;;5041758;28;20059;-79
2023/05/15 05:21:52;;;;;;;10.90;6.57;;;;;;;;;;5042912;28;20029;-78
2023/05/15 05:24:19;;;;;;;10.45;6.65;;;;;;;;;;5044166;28;20456;-78
2023/05/15 05:26:46;;;;;;;10.82;6.85;;;;;;;;;;5046344;28;20438;-78
2023/05/15 05:29:12;;;;;;;9.15;6.38;;;;;;;;;;5048521;28;20051;-76
2023/05/15 05:31:38;;;;;;;12.15;6.78;;;;;;;;;;5029066;28;20765;-82
2023/05/15 05:34:03;;;;;;;10.07;6.15;;;;;;;;;;5047021;28;20424;-78
2023/05/15 05:36:29;;;;;;;12.15;6.47;;;;;;;;;;5047399;28;20036;-80
2023/05/15 05:38:54;;;;;;;9.60;6.43;;;;;;;;;;5041232;28;20029;-76
2023/05/15 05:41:20;;;;;;;8.90;6.13;;;;;;;;;;5041337;28;20443;-80
2023/05/15 05:43:46;;;;;;;9.40;6.85;;;;;;;;;;5040925;28;20026;-77
2023/05/15 05:46:11;;;;;;;9.30;5.97;;;;;;;;;;5043143;28;20048;-77
2023/05/15 05:48:37;;;;;;;8.23;6.35;;;;;;;;;;5039663;28;20136;-76
2023/05/15 05:51:04;;;;;;;7.70;6.03;;;;;;;;;;5040860;28;20063;-79
2023/05/15 05:53:29;;;;;;;10.23;6.53;;;;;;;;;;5043349;28;20037;-78
2023/05/15 05:55:55;;;;;;;9.98;6.22;;;;;;;;;;5039005;28;20482;-75
2023/05/15 05:58:21;;;;;;;8.23;6.03;;;;;;;;;;5054195;28;20047;-78
2023/05/15 06:00:47;;;;;;;9.77;6.68;;;;;;;;;;5044655;28;20066;-78
2023/05/15 06:03:12;;;;;;;9.77;6.07;;;;;;;;;;5043456;28;20792;-78
2023/05/15 06:05:38;;;;;;;11.75;6.45;;;;;;;;;;5066474;28;20131;-79
2023/05/15 06:08:05;;;;;;;10.05;6.75;;;;;;;;;;5036667;28;20036;-78
2023/05/15 06:10:30;;;;;;;9.73;6.05;;;;;;;;;;5046279;28;20546;-79
2023/05/15 06:12:56;;;;;;;8.10;6.32;;;;;;;;;;5043184;28;20138;-80
2023/05/15 06:15:21;;;;;;;11.18;6.15;;;;;;;;;;5043370;28;20160;-76
2023/05/15 06:17:47;;;;;;;13.38;8.00;;;;;;;;;;5047017;28;20028;-77
2023/05/15 06:20:13;;;;;;;11.05;7.25;;;;;;;;;;5042854;28;20898;-76
2023/05/15 06:22:39;;;;;;;11.18;6.63;;;;;;;;;;5061963;28;20048;-80
2023/05/15 06:25:05;;;;;;;13.57;6.88;;;;;;;;;;5067390;28;20025;-78
2023/05/15 06:27:31;;;;;;;10.23;6.57;;;;;;;;;;5046519;28;20098;-81
2023/05/15 06:29:57;;;;;;;10.90;6.75;;;;;;;;;;5052646;28;20025;-80
2023/05/15 06:32:23;;;;;;;11.35;6.68;;;;;;;;;;5050152;28;20045;-80
2023/05/15 06:34:50;;;;;;;9.85;6.13;;;;;;;;;;5058709;28;20120;-79
2023/05/15 06:37:15;;;;;;;8.25;6.28;;;;;;;;;;5061198;28;20139;-81
2023/05/15 06:39:41;;;;;;;8.05;6.03;;;;;;;;;;5046035;28;20036;-79
2023/05/15 06:42:06;;;;;;;6.85;5.55;;;;;;;;;;5062229;28;20035;-80
2023/05/15 06:44:34;;;;;;;10.15;8.35;;;;;;;;;;5057984;28;20037;-83
2023/05/15 06:47:00;;;;;;;7.82;5.40;;;;;;;;;;5054424;28;20028;-78
2023/05/15 06:49:26;;;;;;;9.07;6.93;;;;;;;;;;5051904;28;20059;-81
2023/05/15 06:51:53;;;;;;;10.13;6.55;;;;;;;;;;5052437;28;20028;-78
2023/05/15 06:54:20;;;;;;;8.45;6.13;;;;;;;;;;5065507;28;20492;-82
2023/05/15 06:56:46;;;;;;;8.18;5.65;;;;;;;;;;5057066;28;20059;-82
2023/05/15 06:59:12;;;;;;;10.38;5.78;;;;;;;;;;5047383;28;20508;-84
2023/05/15 07:01:38;;;;;;;8.70;6.25;;;;;;;;;;5045442;28;20755;-81
2023/05/15 07:04:04;;;;;;;8.10;5.80;;;;;;;;;;5043787;28;20103;-82
2023/05/15 07:06:30;;;;;;;10.40;6.13;;;;;;;;;;5025314;28;20044;-80
2023/05/15 07:08:57;;;;;;;8.63;5.63;;;;;;;;;;5038660;28;20024;-81
2023/05/15 07:11:22;;;;;;;10.20;6.72;;;;;;;;;;5030412;28;20024;-77
2023/05/15 07:13:48;;;;;;;7.68;6.63;;;;;;;;;;5049119;28;20103;-79
2023/05/15 07:16:15;;;;;;;9.80;6.30;;;;;;;;;;5043415;28;20081;-81
2023/05/15 07:18:40;;;;;;;9.10;6.13;;;;;;;;;;5066595;28;20024;-81
2023/05/15 07:21:06;;;;;;;10.20;6.82;;;;;;;;;;5062064;28;20036;-80
2023/05/15 07:23:32;;;;;;;11.30;6.22;;;;;;;;;;5052429;28;20066;-79
2023/05/15 07:26:03;;;;;;;11.18;6.68;;;;;;;;;;5047884;28;20035;-80
2023/05/15 07:28:34;;;;;;;9.38;7.20;;;;;;;;;;5049108;28;20103;-79
2023/05/15 07:31:00;;;;;;;7.83;5.90;;;;;;;;;;5046621;28;20036;-77
2023/05/15 07:33:26;;;;;;;6.80;5.95;;;;;;;;;;5052959;28;20031;-79
2023/05/15 07:35:52;;;;;;;8.02;7.15;;;;;;;;;;5030207;28;20040;-79
2023/05/15 07:38:18;;;;;;;8.13;5.57;;;;;;;;;;5068618;28;20040;-77
2023/05/15 07:40:44;;;;;;;11.57;5.90;;;;;;;;;;5060602;28;20028;-78
2023/05/15 07:43:13;;;;;;;9.60;5.43;;;;;;;;;;5063016;28;20122;-78
2023/05/15 07:45:40;;;;;;;8.77;5.00;;;;;;;;;;5049417;28;20097;-81
2023/05/15 07:48:16;;;;;;;6.90;5.57;;;;;;;;;;5068813;28;20112;-78
2023/05/15 07:50:42;;;;;;;8.55;5.03;;;;;;;;;;5063938;28;20032;-81
2023/05/15 07:53:08;;;;;;;7.78;5.30;;;;;;;;;;5041782;28;20495;-85
2023/05/15 07:55:35;;;;;;;6.47;5.05;;;;;;;;;;5045981;28;20032;-84
2023/05/15 07:58:01;;;;;;;6.93;5.50;;;;;;;;;;5068069;28;20065;-77
2023/05/15 08:00:26;;;;;;;7.13;5.20;;;;;;;;;;5046547;28;20025;-82
2023/05/15 08:02:52;;;;;;;8.02;4.95;;;;;;;;;;5055795;28;20028;-81
2023/05/15 08:05:23;;;;;;;7.82;5.05;;;;;;;;;;5044419;28;20032;-84
2023/05/15 08:07:49;;;;;;;5.50;4.50;;;;;;;;;;5048332;28;20032;-81
2023/05/15 08:10:15;;;;;;;7.03;4.78;;;;;;;;;;5070048;28;20035;-84
2023/05/15 08:12:45;;;;;;;10.57;5.95;;;;;;;;;;5061898;28;20025;-81
2023/05/15 08:15:14;;;;;;;4.70;4.10;;;;;;;;;;5048249;28;20633;-85
2023/05/15 08:17:40;;;;;;;5.30;4.18;;;;;;;;;;5048349;28;20033;-82
2023/05/15 08:20:06;;;;;;;6.30;4.38;;;;;;;;;;5063793;28;20055;-85
2023/05/15 08:22:35;;;;;;;6.70;4.93;;;;;;;;;;5066725;28;20032;-83
2023/05/15 08:25:02;;;;;;;6.32;4.50;;;;;;;;;;5059748;28;20024;-82
2023/05/15 08:27:32;;;;;;;8.65;4.43;;;;;;;;;;5069245;28;20115;-84
2023/05/15 08:29:58;;;;;;;7.95;4.95;;;;;;;;;;5049912;28;20052;-84
2023/05/15 08:32:24;;;;;;;5.90;4.95;;;;;;;;;;5065077;28;20368;-80
2023/05/15 08:34:50;;;;;;;8.23;4.05;;;;;;;;;;5051685;28;20051;-83
2023/05/15 08:37:20;;;;;;;9.40;4.47;;;;;;;;;;5064004;28;20036;-80
2023/05/15 08:39:48;;;;;;;6.32;4.68;;;;;;;;;;5052093;28;20024;-80
2023/05/15 08:42:20;;;;;;;5.50;4.30;;;;;;;;;;5054002;28;20110;-81
2023/05/15 08:44:47;;;;;;;9.15;6.28;;;;;;;;;;5048492;28;20147;-79
2023/05/15 08:47:14;;;;;;;4.60;3.40;;;;;;;;;;5051617;28;20115;-80
2023/05/15 08:50:03;;;;;;;3.80;3.35;;;;;;;;;;5047582;28;20483;-79
2023/05/15 08:52:30;;;;;;;5.28;3.83;;;;;;;;;;5042249;28;20067;-78
2023/05/15 08:54:57;;;;;;;5.80;3.90;;;;;;;;;;5046677;28;20032;-81
2023/05/15 08:57:23;;;;;;;4.55;4.07;;;;;;;;;;5063335;28;20048;-80
2023/05/15 08:59:50;;;;;;;4.63;3.38;;;;;;;;;;5066754;28;20043;-81
2023/05/15 09:02:16;;;;;;;4.82;3.88;;;;;;;;;;5068649;28;20736;-80
2023/05/15 09:04:43;;;;;;;5.75;3.90;;;;;;;;;;5061520;28;20025;-77
2023/05/15 09:07:09;;;;;;;6.13;4.10;;;;;;;;;;5069945;28;20025;-80
2023/05/15 09:09:36;;;;;;;5.13;4.35;;;;;;;;;;5047204;28;20085;-79
2023/05/15 09:12:02;;;;;;;8.27;4.85;;;;;;;;;;5048013;28;20140;-78
2023/05/15 09:14:28;;;;;;;7.03;4.28;;;;;;;;;;5068079;28;20028;-82
2023/05/15 09:16:54;;;;;;;5.00;3.83;;;;;;;;;;5039504;28;20035;-82
2023/05/15 09:19:21;;;;;;;6.07;3.80;;;;;;;;;;5067650;28;20020;-81
2023/05/15 09:21:47;;;;;;;5.20;4.07;;;;;;;;;;5064257;28;20031;-84
2023/05/15 09:24:23;;;;;;;11.00;4.47;;;;;;;;;;5051464;28;20082;-82
2023/05/15 09:27:01;;;;;;;6.07;4.88;;;;;;;;;;5064522;28;20106;-79
2023/05/15 09:29:29;;;;;;;6.85;4.63;;;;;;;;;;5074099;28;20679;-76
2023/05/15 09:31:55;;;;;;;5.53;4.80;;;;;;;;;;5071076;28;20025;-78
2023/05/15 09:34:37;;;;;;;5.57;4.22;;;;;;;;;;5049419;28;20078;-76
2023/05/15 09:37:03;;;;;;;;;;;;;;;;;;5067378;28;20032;-79
2023/05/15 09:39:29;;;;;;;7.55;4.55;;;;;;;;;;5051205;28;19916;-77
2023/05/15 09:42:14;;;;;;;5.60;4.82;;;;;;;;;;5052002;28;20369;-82
2023/05/15 09:44:43;;;;;;;7.10;5.18;;;;;;;;;;5067968;28;20020;-80
2023/05/15 09:47:17;;;;;;;8.30;4.65;;;;;;;;;;5051849;28;20549;-83
2023/05/15 09:49:51;;;;;;;5.20;4.68;;;;;;;;;;5070549;28;20028;-86
2023/05/15 09:52:17;;;;;;;6.75;4.60;;;;;;;;;;5053136;28;20040;-84
2023/05/15 09:54:47;;;;;;;7.72;4.63;;;;;;;;;;5048416;28;20776;-84
2023/05/15 09:57:13;;;;;;;6.95;4.50;;;;;;;;;;5043405;28;20052;-79
2023/05/15 09:59:47;;;;;;;5.47;4.30;;;;;;;;;;5052175;28;20032;-83
2023/05/15 10:05:41;;;;;;;8.02;5.40;;;;;;;;;;5044321;28;20060;-83
2023/05/15 10:08:11;;;;;;;5.03;3.70;;;;;;;;;;5054303;28;20043;-81
2023/05/15 10:10:37;;;;;;;7.90;4.30;;;;;;;;;;5064634;28;20082;-80
2023/05/15 10:13:04;;;;;;;5.47;3.42;;;;;;;;;;5067967;28;20040;-83
2023/05/15 10:15:31;;;;;;;3.65;3.10;;;;;;;;;;5071760;28;20039;-83
2023/05/15 10:18:00;;;;;;;6.60;4.45;;;;;;;;;;5051542;28;20068;-80
2023/05/15 10:20:34;;;;;;;4.78;4.00;;;;;;;;;;5054051;28;20571;-79
2023/05/15 10:23:16;;;;;;;7.15;3.80;;;;;;;;;;5053526;28;20119;-79
2023/05/15 10:29:16;;;;;;;6.13;3.90;;;;;;;;;;5046393;28;20048;-82
2023/05/15 10:31:52;;;;;;;4.78;3.65;;;;;;;;;;5070480;28;20028;-81
2023/05/15 10:34:19;;;;;;;5.03;3.30;;;;;;;;;;5036612;28;20043;-77
2023/05/15 10:36:56;;;;;;;3.58;3.10;;;;;;;;;;5050635;28;20066;-78
2023/05/15 10:39:23;;;;;;;6.10;3.67;;;;;;;;;;5048998;28;20066;-80
2023/05/15 10:41:50;;;;;;;3.55;3.17;;;;;;;;;;5050057;28;20039;-80
2023/05/15 10:44:17;;;;;;;11.30;4.32;;;;;;;;;;5076905;28;20036;-81
2023/05/15 10:46:43;;;;;;;4.57;3.20;;;;;;;;;;5077216;28;20036;-79
2023/05/15 10:49:08;;;;;;;5.15;3.38;;;;;;;;;;5074487;28;20048;-81
2023/05/15 10:51:38;;;;;;;5.30;3.65;;;;;;;;;;5049775;28;20044;-80
2023/05/15 10:54:04;;;;;;;4.20;2.95;;;;;;;;;;5032450;28;20036;-79
2023/05/15 10:56:33;;;;;;;5.18;3.25;;;;;;;;;;5066649;28;20049;-79
2023/05/15 10:59:08;;;;;;;5.00;3.20;;;;;;;;;;5066178;28;20020;-78
2023/05/15 11:01:38;;;;;;;7.03;4.00;;;;;;;;;;5068886;28;20032;-79
2023/05/15 11:04:17;;;;;;;4.57;3.73;;;;;;;;;;5066444;28;20057;-80
2023/05/15 11:06:46;;;;;;;5.65;3.90;;;;;;;;;;5026424;28;20412;-78
2023/05/15 11:09:24;;;;;;;5.70;3.70;;;;;;;;;;5048020;28;20033;-80
2023/05/15 11:12:04;;;;;;;6.35;3.60;;;;;;;;;;5073050;28;20021;-79
2023/05/15 11:15:08;;;;;;;4.45;3.60;;;;;;;;;;5058199;28;20040;-83
2023/05/15 11:17:34;;;;;;;8.20;3.75;;;;;;;;;;5031571;28;20135;-84
2023/05/15 11:20:00;;;;;;;4.63;3.42;;;;;;;;;;5069043;28;20119;-80
2023/05/15 11:22:30;;;;;;;4.57;3.55;;;;;;;;;;5068989;28;20056;-79
2023/05/15 11:25:11;;;;;;;3.78;3.35;;;;;;;;;;5044040;28;20102;-81
2023/05/15 11:27:55;;;;;;;4.95;3.92;;;;;;;;;;5065663;28;20031;-80
2023/05/15 11:30:38;;;;;;;6.07;3.80;;;;;;;;;;5069019;28;20029;-81
2023/05/15 11:33:10;;;;;;;4.65;3.67;;;;;;;;;;5028226;28;20090;-77
2023/05/15 11:35:46;;;;;;;7.18;4.57;;;;;;;;;;5050911;28;20369;-82
2023/05/15 11:38:18;;;;;;;5.07;4.00;;;;;;;;;;5048552;28;20395;-83
2023/05/15 11:41:02;;;;;;;4.05;3.65;;;;;;;;;;5064276;28;20554;-82
2023/05/15 11:43:29;;;;;;;4.18;3.40;;;;;;;;;;5055037;28;20098;-85
2023/05/15 11:46:06;;;;;;;6.57;4.07;;;;;;;;;;5069865;28;20021;-77
2023/05/15 11:48:48;;;;;;;5.78;3.90;;;;;;;;;;5070392;28;20086;-81
2023/05/15 11:51:26;;;;;;;5.65;3.67;;;;;;;;;;5059255;28;20033;-82
2023/05/15 11:53:53;;;;;;;9.75;4.72;;;;;;;;;;5052304;28;20032;-80
2023/05/15 11:56:23;;;;;;;6.10;4.43;;;;;;;;;;5050451;28;20471;-81
2023/05/15 11:58:58;;;;;;;6.38;4.38;;;;;;;;;;5069665;28;20472;-79
2023/05/15 12:01:28;;;;;;;4.70;4.15;;;;;;;;;;5048510;28;20039;-80
2023/05/15 12:03:54;;;;;;;11.85;4.85;;;;;;;;;;5066467;28;20109;-82
2023/05/15 12:06:19;;;;;;;6.00;4.45;;;;;;;;;;5049923;28;20064;-79
2023/05/15 12:08:51;;;;;;;5.35;4.40;;;;;;;;;;5069814;28;20107;-83
2023/05/15 12:11:21;;;;;;;11.90;4.88;;;;;;;;;;5053455;28;20028;-83
2023/05/15 12:13:50;;;;;;;5.28;3.78;;;;;;;;;;5049614;28;20052;-78
2023/05/15 12:16:16;;;;;;;4.15;3.75;;;;;;;;;;5065111;28;20024;-81
2023/05/15 12:18:49;;;;;;;4.85;3.90;;;;;;;;;;5048074;28;20472;-82
2023/05/15 12:21:16;;;;;;;5.97;3.60;;;;;;;;;;5050206;28;20144;-82
2023/05/15 12:23:49;;;;;;;5.85;3.80;;;;;;;;;;5050359;28;20141;-79
2023/05/15 12:26:20;;;;;;;5.90;3.97;;;;;;;;;;5062505;28;20033;-83
2023/05/15 12:28:46;;;;;;;6.78;4.38;;;;;;;;;;5059331;28;20036;-84
2023/05/15 12:31:12;;;;;;;4.20;3.42;;;;;;;;;;5064092;28;20579;-81
2023/05/15 12:33:37;;;;;;;5.72;3.30;;;;;;;;;;5050525;28;20020;-83
2023/05/15 12:36:03;;;;;;;4.00;3.40;;;;;;;;;;5048055;28;20033;-82
2023/05/15 12:38:29;;;;;;;3.95;3.65;;;;;;;;;;5049020;28;20044;-82
2023/05/15 12:40:55;;;;;;;7.90;3.58;;;;;;;;;;5047695;28;20021;-79
2023/05/15 12:43:24;;;;;;;4.82;3.65;;;;;;;;;;5067047;28;20040;-80
2023/05/15 12:45:57;;;;;;;3.80;3.20;;;;;;;;;;5040436;28;20041;-79
2023/05/15 12:48:28;;;;;;;8.15;3.80;;;;;;;;;;5048301;28;20032;-82
2023/05/15 12:50:54;;;;;;;5.57;3.50;;;;;;;;;;5049614;28;20515;-81
2023/05/15 12:53:20;;;;;;;8.43;3.97;;;;;;;;;;5068220;28;20040;-79
2023/05/15 12:55:47;;;;;;;5.30;4.10;;;;;;;;;;5049580;28;20037;-83
2023/05/15 12:58:17;;;;;;;5.25;4.20;;;;;;;;;;5052042;28;20076;-86
2023/05/15 13:00:46;;;;;;;4.57;3.58;;;;;;;;;;5054673;28;20139;-81
2023/05/15 13:03:13;;;;;;;6.78;4.55;;;;;;;;;;5046182;28;20368;-82
2023/05/15 13:05:42;;;;;;;9.52;4.18;;;;;;;;;;5041104;28;20037;-82
2023/05/15 13:08:13;;;;;;;5.53;4.18;;;;;;;;;;5045698;28;20051;-82
2023/05/15 13:10:39;;;;;;;7.72;3.83;;;;;;;;;;5053531;28;20021;-82
2023/05/15 13:13:04;;;;;;;5.60;3.83;;;;;;;;;;5062308;28;20047;-83
2023/05/15 13:15:31;;;;;;;6.43;3.85;;;;;;;;;;5054575;28;20120;-85
2023/05/15 13:18:01;;;;;;;9.50;4.78;;;;;;;;;;5057416;28;20020;-85
2023/05/15 13:20:32;;;;;;;4.95;4.32;;;;;;;;;;5056063;28;20021;-80
2023/05/15 13:22:57;;;;;;;4.80;3.88;;;;;;;;;;5051426;28;20050;-83
2023/05/15 13:25:23;;;;;;;6.95;4.43;;;;;;;;;;5055338;28;20076;-80
2023/05/15 13:27:52;;;;;;;4.78;4.38;;;;;;;;;;5049724;28;20036;-84
2023/05/15 13:30:18;;;;;;;6.82;4.93;;;;;;;;;;5052427;28;20021;-80
2023/05/15 13:32:44;;;;;;;6.00;4.40;;;;;;;;;;5049295;28;20040;-82
2023/05/15 13:35:10;;;;;;;8.43;4.53;;;;;;;;;;5049295;28;20089;-80
2023/05/15 13:37:36;;;;;;;8.20;5.47;;;;;;;;;;5049421;28;20100;-81
2023/05/15 13:40:08;;;;;;;7.35;4.53;;;;;;;;;;5051800;28;20056;-80
2023/05/15 13:42:35;;;;;;;6.10;5.38;;;;;;;;;;5044045;28;20043;-79
2023/05/15 13:45:02;;;;;;;4.70;4.03;;;;;;;;;;5049759;28;20445;-80
2023/05/15 13:47:29;;;;;;;5.75;4.05;;;;;;;;;;5043442;28;20021;-79
2023/05/15 13:49:56;;;;;;;7.38;5.65;;;;;;;;;;5049919;28;20108;-80
2023/05/15 13:52:22;;;;;;;4.72;3.55;;;;;;;;;;5040767;28;20037;-80
2023/05/15 13:54:48;;;;;;;3.13;2.83;;;;;;;;;;5040549;28;20506;-79
2023/05/15 13:57:15;;;;;;;2.97;2.67;;;;;;;;;;5038679;28;20685;-80
2023/05/15 13:59:40;;;;;;;3.40;3.08;;;;;;;;;;5045749;28;20037;-77
2023/05/15 14:02:09;;;;;;;5.72;3.65;;;;;;;;;;5046454;28;20034;-82
2023/05/15 14:04:35;;;;;;;5.40;3.60;;;;;;;;;;5047935;28;20036;-82
2023/05/15 14:07:02;;;;;;;5.82;3.88;;;;;;;;;;5060739;28;20051;-81
2023/05/15 14:09:31;;;;;;;6.38;3.53;;;;;;;;;;5051341;28;20366;-82
2023/05/15 14:11:57;;;;;;;4.15;3.15;;;;;;;;;;5051288;28;20524;-85
2023/05/15 14:14:25;;;;;;;6.00;3.15;;;;;;;;;;5051325;28;20060;-84
2023/05/15 14:16:50;;;;;;;4.13;3.40;;;;;;;;;;5053054;28;20032;-83
2023/05/15 14:19:16;;;;;;;3.42;3.03;;;;;;;;;;5053592;28;20083;-82
2023/05/15 14:21:44;;;;;;;5.38;3.28;;;;;;;;;;5053543;28;20120;-81
2023/05/15 14:24:10;;;;;;;11.82;3.38;;;;;;;;;;5053899;28;20388;-83
2023/05/15 14:26:38;;;;;;;6.57;3.15;;;;;;;;;;5051101;28;20021;-83
2023/05/15 14:29:03;;;;;;;6.70;3.25;;;;;;;;;;5055042;28;20111;-83
2023/05/15 14:31:32;;;;;;;5.57;3.50;;;;;;;;;;5049255;28;20107;-82
2023/05/15 14:33:58;;;;;;;3.78;2.90;;;;;;;;;;5055409;28;20093;-82
2023/05/15 14:36:24;;;;;;;3.25;2.95;;;;;;;;;;5045849;28;20021;-81
2023/05/15 14:38:49;;;;;;;4.22;3.30;;;;;;;;;;5038440;28;20024;-79
2023/05/15 14:41:15;;;;;;;3.83;3.00;;;;;;;;;;5057193;28;20426;-81
2023/05/15 14:43:40;;;;;;;3.95;2.70;;;;;;;;;;5058056;28;20040;-84
2023/05/15 14:46:09;;;;;;;3.13;2.72;;;;;;;;;;5047336;28;20441;-80
2023/05/15 14:48:34;;;;;;;4.03;2.50;;;;;;;;;;5054027;28;20024;-80
2023/05/15 14:51:00;;;;;;;7.82;2.85;;;;;;;;;;5046239;28;20059;-85